sensor_id;sensor_type;location;lat;lon;timestamp;P1;durP1;ratioP1;P2;durP2;ratioP2
7737;SDS011;29398;45.328;5.558;2024-01-10T00:00:37;53.80;;;38.67;;
7737;SDS011;29398;45.328;5.558;2024-01-10T00:01:39;53.28;;;39.67;;
7737;SDS011;29398;45.328;5.558;2024-01-10T00:02:41;50.15;;;37.88;;
7737;SDS011;29398;45.328;5.558;2024-01-10T00:03:42;49.83;;;35.95;;
7737;SDS011;29398;45.328;5.558;2024-01-10T00:04:44;47.08;;;34.47;;
7737;SDS011;29398;45.328;5.558;2024-01-10T00:05:45;48.85;;;37.30;;
7737;SDS011;29398;45.328;5.558;2024-01-10T00:06:47;50.90;;;37.03;;
7737;SDS011;29398;45.328;5.558;2024-01-10T00:07:48;48.00;;;34.58;;
7737;SDS011;29398;45.328;5.558;2024-01-10T00:08:50;48.25;;;35.00;;
7737;SDS011;29398;45.328;5.558;2024-01-10T00:09:51;47.10;;;35.25;;
7737;SDS011;29398;45.328;5.558;2024-01-10T00:10:53;50.72;;;37.65;;
7737;SDS011;29398;45.328;5.558;2024-01-10T00:11:55;50.88;;;36.60;;
7737;SDS011;29398;45.328;5.558;2024-01-10T00:12:57;48.42;;;35.28;;
7737;SDS011;29398;45.328;5.558;2024-01-10T00:13:58;49.03;;;35.63;;
7737;SDS011;29398;45.328;5.558;2024-01-10T00:15:00;51.67;;;37.17;;
7737;SDS011;29398;45.328;5.558;2024-01-10T00:16:02;49.97;;;35.33;;
7737;SDS011;29398;45.328;5.558;2024-01-10T00:17:05;48.70;;;36.33;;
7737;SDS011;29398;45.328;5.558;2024-01-10T00:18:06;46.80;;;34.75;;
7737;SDS011;29398;45.328;5.558;2024-01-10T00:19:08;49.47;;;36.22;;
7737;SDS011;29398;45.328;5.558;2024-01-10T00:20:09;48.67;;;35.60;;
7737;SDS011;29398;45.328;5.558;2024-01-10T00:21:11;49.30;;;36.20;;
7737;SDS011;29398;45.328;5.558;2024-01-10T00:22:12;48.30;;;34.28;;
7737;SDS011;29398;45.328;5.558;2024-01-10T00:23:15;52.35;;;37.45;;
7737;SDS011;29398;45.328;5.558;2024-01-10T00:24:16;51.10;;;36.70;;
7737;SDS011;29398;45.328;5.558;2024-01-10T00:25:18;49.03;;;36.40;;
7737;SDS011;29398;45.328;5.558;2024-01-10T00:26:19;50.05;;;36.30;;
7737;SDS011;29398;45.328;5.558;2024-01-10T00:27:21;50.45;;;36.58;;
7737;SDS011;29398;45.328;5.558;2024-01-10T00:28:22;50.25;;;36.80;;
7737;SDS011;29398;45.328;5.558;2024-01-10T00:29:24;50.80;;;37.53;;
7737;SDS011;29398;45.328;5.558;2024-01-10T00:30:26;50.65;;;36.30;;
7737;SDS011;29398;45.328;5.558;2024-01-10T00:31:29;46.25;;;34.67;;
7737;SDS011;29398;45.328;5.558;2024-01-10T00:32:30;44.70;;;31.35;;
7737;SDS011;29398;45.328;5.558;2024-01-10T00:33:33;50.65;;;36.38;;
7737;SDS011;29398;45.328;5.558;2024-01-10T00:34:34;47.47;;;34.85;;
7737;SDS011;29398;45.328;5.558;2024-01-10T00:35:35;49.15;;;34.22;;
7737;SDS011;29398;45.328;5.558;2024-01-10T00:36:37;47.53;;;35.53;;
7737;SDS011;29398;45.328;5.558;2024-01-10T00:37:38;48.08;;;34.42;;
7737;SDS011;29398;45.328;5.558;2024-01-10T00:38:40;49.28;;;35.38;;
7737;SDS011;29398;45.328;5.558;2024-01-10T00:39:41;46.90;;;33.58;;
7737;SDS011;29398;45.328;5.558;2024-01-10T00:40:43;46.22;;;33.05;;
7737;SDS011;29398;45.328;5.558;2024-01-10T00:41:44;45.35;;;32.95;;
7737;SDS011;29398;45.328;5.558;2024-01-10T00:42:47;48.88;;;36.40;;
7737;SDS011;29398;45.328;5.558;2024-01-10T00:43:48;48.00;;;34.55;;
7737;SDS011;29398;45.328;5.558;2024-01-10T00:44:50;48.97;;;34.25;;
7737;SDS011;29398;45.328;5.558;2024-01-10T00:45:51;51.17;;;37.92;;
7737;SDS011;29398;45.328;5.558;2024-01-10T00:46:54;47.35;;;34.53;;
7737;SDS011;29398;45.328;5.558;2024-01-10T00:47:55;48.70;;;35.33;;
7737;SDS011;29398;45.328;5.558;2024-01-10T00:48:58;48.25;;;35.72;;
7737;SDS011;29398;45.328;5.558;2024-01-10T00:49:59;48.03;;;35.13;;
7737;SDS011;29398;45.328;5.558;2024-01-10T00:51:00;49.13;;;36.75;;
7737;SDS011;29398;45.328;5.558;2024-01-10T00:52:02;49.70;;;35.97;;
7737;SDS011;29398;45.328;5.558;2024-01-10T00:53:03;47.47;;;35.30;;
7737;SDS011;29398;45.328;5.558;2024-01-10T00:54:05;50.67;;;35.72;;
7737;SDS011;29398;45.328;5.558;2024-01-10T00:55:07;50.53;;;36.60;;
7737;SDS011;29398;45.328;5.558;2024-01-10T00:56:09;47.63;;;33.78;;
7737;SDS011;29398;45.328;5.558;2024-01-10T00:57:12;48.92;;;36.72;;
7737;SDS011;29398;45.328;5.558;2024-01-10T00:58:14;50.08;;;35.28;;
7737;SDS011;29398;45.328;5.558;2024-01-10T00:59:16;48.35;;;35.47;;
7737;SDS011;29398;45.328;5.558;2024-01-10T01:00:17;50.70;;;36.78;;
7737;SDS011;29398;45.328;5.558;2024-01-10T01:01:19;49.00;;;34.25;;
7737;SDS011;29398;45.328;5.558;2024-01-10T01:02:21;46.72;;;34.42;;
7737;SDS011;29398;45.328;5.558;2024-01-10T01:03:23;49.17;;;35.10;;
7737;SDS011;29398;45.328;5.558;2024-01-10T01:04:24;50.38;;;36.08;;
7737;SDS011;29398;45.328;5.558;2024-01-10T01:05:26;49.55;;;36.60;;
7737;SDS011;29398;45.328;5.558;2024-01-10T01:06:27;50.03;;;35.35;;
7737;SDS011;29398;45.328;5.558;2024-01-10T01:07:29;50.13;;;36.08;;
7737;SDS011;29398;45.328;5.558;2024-01-10T01:08:30;51.53;;;36.35;;
7737;SDS011;29398;45.328;5.558;2024-01-10T01:09:33;49.78;;;36.85;;
7737;SDS011;29398;45.328;5.558;2024-01-10T01:10:34;51.85;;;36.88;;
7737;SDS011;29398;45.328;5.558;2024-01-10T01:11:36;49.83;;;37.97;;
7737;SDS011;29398;45.328;5.558;2024-01-10T01:12:37;53.80;;;37.95;;
7737;SDS011;29398;45.328;5.558;2024-01-10T01:13:40;51.13;;;37.67;;
7737;SDS011;29398;45.328;5.558;2024-01-10T01:14:41;52.00;;;36.50;;
7737;SDS011;29398;45.328;5.558;2024-01-10T01:15:43;56.25;;;39.53;;
7737;SDS011;29398;45.328;5.558;2024-01-10T01:16:44;53.90;;;39.22;;
7737;SDS011;29398;45.328;5.558;2024-01-10T01:17:48;57.60;;;40.10;;
7737;SDS011;29398;45.328;5.558;2024-01-10T01:18:49;55.08;;;38.90;;
7737;SDS011;29398;45.328;5.558;2024-01-10T01:19:51;53.47;;;39.03;;
7737;SDS011;29398;45.328;5.558;2024-01-10T01:20:52;57.10;;;40.42;;
7737;SDS011;29398;45.328;5.558;2024-01-10T01:21:54;55.85;;;40.50;;
7737;SDS011;29398;45.328;5.558;2024-01-10T01:22:55;57.38;;;41.45;;
7737;SDS011;29398;45.328;5.558;2024-01-10T01:23:58;54.20;;;38.95;;
7737;SDS011;29398;45.328;5.558;2024-01-10T01:24:59;56.40;;;41.70;;
7737;SDS011;29398;45.328;5.558;2024-01-10T01:26:00;58.45;;;40.38;;
7737;SDS011;29398;45.328;5.558;2024-01-10T01:27:04;52.88;;;38.30;;
7737;SDS011;29398;45.328;5.558;2024-01-10T01:28:05;61.67;;;42.80;;
7737;SDS011;29398;45.328;5.558;2024-01-10T01:29:09;57.22;;;42.60;;
7737;SDS011;29398;45.328;5.558;2024-01-10T01:30:10;54.80;;;38.60;;
7737;SDS011;29398;45.328;5.558;2024-01-10T01:31:13;56.35;;;40.72;;
7737;SDS011;29398;45.328;5.558;2024-01-10T01:32:14;54.25;;;39.35;;
7737;SDS011;29398;45.328;5.558;2024-01-10T01:33:17;51.03;;;38.28;;
7737;SDS011;29398;45.328;5.558;2024-01-10T01:34:18;53.83;;;39.95;;
7737;SDS011;29398;45.328;5.558;2024-01-10T01:35:21;53.72;;;38.33;;
7737;SDS011;29398;45.328;5.558;2024-01-10T01:36:22;56.90;;;41.70;;
7737;SDS011;29398;45.328;5.558;2024-01-10T01:37:24;54.90;;;40.42;;
7737;SDS011;29398;45.328;5.558;2024-01-10T01:38:25;54.42;;;40.13;;
7737;SDS011;29398;45.328;5.558;2024-01-10T01:39:28;51.40;;;37.25;;
7737;SDS011;29398;45.328;5.558;2024-01-10T01:40:29;53.00;;;39.45;;
7737;SDS011;29398;45.328;5.558;2024-01-10T01:41:31;53.53;;;38.15;;
7737;SDS011;29398;45.328;5.558;2024-01-10T01:42:32;52.58;;;39.28;;
7737;SDS011;29398;45.328;5.558;2024-01-10T01:43:34;57.53;;;41.30;;
7737;SDS011;29398;45.328;5.558;2024-01-10T01:44:35;55.15;;;39.03;;
7737;SDS011;29398;45.328;5.558;2024-01-10T01:45:37;56.40;;;40.50;;
7737;SDS011;29398;45.328;5.558;2024-01-10T01:46:38;55.78;;;39.85;;
7737;SDS011;29398;45.328;5.558;2024-01-10T01:47:41;55.63;;;40.63;;
7737;SDS011;29398;45.328;5.558;2024-01-10T01:48:44;53.88;;;38.72;;
7737;SDS011;29398;45.328;5.558;2024-01-10T01:49:47;54.58;;;40.63;;
7737;SDS011;29398;45.328;5.558;2024-01-10T01:50:49;51.00;;;37.67;;
7737;SDS011;29398;45.328;5.558;2024-01-10T01:51:51;53.08;;;39.78;;
7737;SDS011;29398;45.328;5.558;2024-01-10T01:52:53;53.60;;;39.88;;
7737;SDS011;29398;45.328;5.558;2024-01-10T01:53:55;59.58;;;42.00;;
7737;SDS011;29398;45.328;5.558;2024-01-10T01:54:57;56.75;;;41.13;;
7737;SDS011;29398;45.328;5.558;2024-01-10T01:55:59;58.10;;;41.08;;
7737;SDS011;29398;45.328;5.558;2024-01-10T01:57:04;56.28;;;39.17;;
7737;SDS011;29398;45.328;5.558;2024-01-10T01:58:05;59.90;;;40.97;;
7737;SDS011;29398;45.328;5.558;2024-01-10T01:59:08;58.60;;;41.00;;
7737;SDS011;29398;45.328;5.558;2024-01-10T02:00:10;59.33;;;41.50;;
7737;SDS011;29398;45.328;5.558;2024-01-10T02:01:11;51.58;;;37.28;;
7737;SDS011;29398;45.328;5.558;2024-01-10T02:02:14;51.90;;;38.00;;
7737;SDS011;29398;45.328;5.558;2024-01-10T02:03:16;55.67;;;38.88;;
7737;SDS011;29398;45.328;5.558;2024-01-10T02:04:20;51.78;;;36.05;;
7737;SDS011;29398;45.328;5.558;2024-01-10T02:05:21;53.22;;;37.15;;
7737;SDS011;29398;45.328;5.558;2024-01-10T02:06:23;48.97;;;35.08;;
7737;SDS011;29398;45.328;5.558;2024-01-10T02:07:24;47.08;;;35.28;;
7737;SDS011;29398;45.328;5.558;2024-01-10T02:08:26;49.28;;;35.25;;
7737;SDS011;29398;45.328;5.558;2024-01-10T02:09:28;47.35;;;34.78;;
7737;SDS011;29398;45.328;5.558;2024-01-10T02:10:30;43.22;;;32.55;;
7737;SDS011;29398;45.328;5.558;2024-01-10T02:11:31;43.67;;;33.95;;
7737;SDS011;29398;45.328;5.558;2024-01-10T02:12:33;46.20;;;33.88;;
7737;SDS011;29398;45.328;5.558;2024-01-10T02:13:35;47.38;;;35.33;;
7737;SDS011;29398;45.328;5.558;2024-01-10T02:14:37;44.78;;;33.80;;
7737;SDS011;29398;45.328;5.558;2024-01-10T02:15:38;44.85;;;32.53;;
7737;SDS011;29398;45.328;5.558;2024-01-10T02:16:40;44.38;;;31.63;;
7737;SDS011;29398;45.328;5.558;2024-01-10T02:17:41;43.88;;;31.80;;
7737;SDS011;29398;45.328;5.558;2024-01-10T02:18:43;46.20;;;31.83;;
7737;SDS011;29398;45.328;5.558;2024-01-10T02:19:45;44.42;;;32.75;;
7737;SDS011;29398;45.328;5.558;2024-01-10T02:20:48;45.72;;;34.13;;
7737;SDS011;29398;45.328;5.558;2024-01-10T02:21:49;44.58;;;33.03;;
7737;SDS011;29398;45.328;5.558;2024-01-10T02:22:51;42.67;;;32.63;;
7737;SDS011;29398;45.328;5.558;2024-01-10T02:23:53;45.53;;;32.65;;
7737;SDS011;29398;45.328;5.558;2024-01-10T02:24:55;44.10;;;32.50;;
7737;SDS011;29398;45.328;5.558;2024-01-10T02:25:57;43.78;;;31.73;;
7737;SDS011;29398;45.328;5.558;2024-01-10T02:26:59;44.00;;;32.00;;
7737;SDS011;29398;45.328;5.558;2024-01-10T02:28:01;44.03;;;32.47;;
7737;SDS011;29398;45.328;5.558;2024-01-10T02:29:02;41.42;;;31.50;;
7737;SDS011;29398;45.328;5.558;2024-01-10T02:30:04;40.88;;;31.08;;
7737;SDS011;29398;45.328;5.558;2024-01-10T02:31:07;42.45;;;31.63;;
7737;SDS011;29398;45.328;5.558;2024-01-10T02:32:09;45.53;;;33.17;;
7737;SDS011;29398;45.328;5.558;2024-01-10T02:33:10;47.78;;;36.22;;
7737;SDS011;29398;45.328;5.558;2024-01-10T02:34:12;45.40;;;33.58;;
7737;SDS011;29398;45.328;5.558;2024-01-10T02:35:13;46.45;;;34.92;;
7737;SDS011;29398;45.328;5.558;2024-01-10T02:36:15;46.25;;;34.65;;
7737;SDS011;29398;45.328;5.558;2024-01-10T02:37:16;49.40;;;36.22;;
7737;SDS011;29398;45.328;5.558;2024-01-10T02:38:18;50.72;;;37.42;;
7737;SDS011;29398;45.328;5.558;2024-01-10T02:39:23;51.78;;;37.33;;
7737;SDS011;29398;45.328;5.558;2024-01-10T02:40:26;50.85;;;35.78;;
7737;SDS011;29398;45.328;5.558;2024-01-10T02:41:28;50.42;;;35.92;;
7737;SDS011;29398;45.328;5.558;2024-01-10T02:42:29;54.90;;;38.92;;
7737;SDS011;29398;45.328;5.558;2024-01-10T02:43:31;54.58;;;37.83;;
7737;SDS011;29398;45.328;5.558;2024-01-10T02:44:32;56.50;;;40.30;;
7737;SDS011;29398;45.328;5.558;2024-01-10T02:45:34;54.03;;;39.88;;
7737;SDS011;29398;45.328;5.558;2024-01-10T02:46:36;56.38;;;40.97;;
7737;SDS011;29398;45.328;5.558;2024-01-10T02:47:38;58.75;;;40.97;;
7737;SDS011;29398;45.328;5.558;2024-01-10T02:48:39;58.22;;;41.55;;
7737;SDS011;29398;45.328;5.558;2024-01-10T02:49:41;56.42;;;41.08;;
7737;SDS011;29398;45.328;5.558;2024-01-10T02:50:42;58.45;;;43.00;;
7737;SDS011;29398;45.328;5.558;2024-01-10T02:51:43;55.47;;;39.58;;
7737;SDS011;29398;45.328;5.558;2024-01-10T02:52:45;55.08;;;39.75;;
7737;SDS011;29398;45.328;5.558;2024-01-10T02:53:47;58.00;;;42.50;;
7737;SDS011;29398;45.328;5.558;2024-01-10T02:54:49;56.35;;;41.60;;
7737;SDS011;29398;45.328;5.558;2024-01-10T02:55:51;57.85;;;41.35;;
7737;SDS011;29398;45.328;5.558;2024-01-10T02:56:53;59.67;;;42.88;;
7737;SDS011;29398;45.328;5.558;2024-01-10T02:57:54;57.92;;;41.80;;
7737;SDS011;29398;45.328;5.558;2024-01-10T02:58:56;59.95;;;42.33;;
7737;SDS011;29398;45.328;5.558;2024-01-10T02:59:57;58.55;;;41.25;;
7737;SDS011;29398;45.328;5.558;2024-01-10T03:00:59;57.60;;;41.63;;
7737;SDS011;29398;45.328;5.558;2024-01-10T03:02:01;57.00;;;42.05;;
7737;SDS011;29398;45.328;5.558;2024-01-10T03:03:04;58.40;;;41.55;;
7737;SDS011;29398;45.328;5.558;2024-01-10T03:04:05;56.75;;;42.15;;
7737;SDS011;29398;45.328;5.558;2024-01-10T03:05:07;55.15;;;39.47;;
7737;SDS011;29398;45.328;5.558;2024-01-10T03:06:08;52.78;;;37.88;;
7737;SDS011;29398;45.328;5.558;2024-01-10T03:07:10;54.33;;;39.85;;
7737;SDS011;29398;45.328;5.558;2024-01-10T03:08:14;54.55;;;39.45;;
7737;SDS011;29398;45.328;5.558;2024-01-10T03:09:17;54.70;;;39.75;;
7737;SDS011;29398;45.328;5.558;2024-01-10T03:10:18;52.03;;;36.58;;
7737;SDS011;29398;45.328;5.558;2024-01-10T03:11:21;47.97;;;35.38;;
7737;SDS011;29398;45.328;5.558;2024-01-10T03:12:22;49.53;;;36.08;;
7737;SDS011;29398;45.328;5.558;2024-01-10T03:13:24;47.40;;;35.38;;
7737;SDS011;29398;45.328;5.558;2024-01-10T03:14:25;46.20;;;34.60;;
7737;SDS011;29398;45.328;5.558;2024-01-10T03:15:27;45.35;;;33.90;;
7737;SDS011;29398;45.328;5.558;2024-01-10T03:16:29;42.15;;;30.52;;
7737;SDS011;29398;45.328;5.558;2024-01-10T03:17:31;41.78;;;31.40;;
7737;SDS011;29398;45.328;5.558;2024-01-10T03:18:34;44.53;;;32.95;;
7737;SDS011;29398;45.328;5.558;2024-01-10T03:19:36;43.80;;;31.42;;
7737;SDS011;29398;45.328;5.558;2024-01-10T11:37:14;44.00;;;31.70;;
7737;SDS011;29398;45.328;5.558;2024-01-10T11:38:16;43.00;;;32.10;;
7737;SDS011;29398;45.328;5.558;2024-01-10T11:39:17;42.58;;;32.05;;
7737;SDS011;29398;45.328;5.558;2024-01-10T11:40:24;42.55;;;30.00;;
7737;SDS011;29398;45.328;5.558;2024-01-10T11:41:48;40.03;;;29.23;;
7737;SDS011;29398;45.328;5.558;2024-01-10T11:42:52;46.03;;;33.35;;
7737;SDS011;29398;45.328;5.558;2024-01-10T11:45:36;42.22;;;29.67;;
7737;SDS011;29398;45.328;5.558;2024-01-10T11:46:38;45.97;;;31.13;;
7737;SDS011;29398;45.328;5.558;2024-01-10T11:47:40;43.45;;;31.73;;
7737;SDS011;29398;45.328;5.558;2024-01-10T11:48:43;40.72;;;29.63;;
7737;SDS011;29398;45.328;5.558;2024-01-10T11:49:53;42.53;;;30.63;;
7737;SDS011;29398;45.328;5.558;2024-01-10T11:50:56;42.60;;;31.60;;
7737;SDS011;29398;45.328;5.558;2024-01-10T11:51:58;42.03;;;30.73;;
7737;SDS011;29398;45.328;5.558;2024-01-10T11:53:03;42.40;;;31.35;;
7737;SDS011;29398;45.328;5.558;2024-01-10T11:54:04;42.35;;;32.08;;
7737;SDS011;29398;45.328;5.558;2024-01-10T11:55:06;46.10;;;32.63;;
7737;SDS011;29398;45.328;5.558;2024-01-10T11:56:09;42.72;;;31.83;;
7737;SDS011;29398;45.328;5.558;2024-01-10T11:57:12;39.63;;;29.13;;
7737;SDS011;29398;45.328;5.558;2024-01-10T11:58:22;43.60;;;32.40;;
7737;SDS011;29398;45.328;5.558;2024-01-10T11:59:24;42.53;;;31.75;;
7737;SDS011;29398;45.328;5.558;2024-01-10T12:00:25;42.80;;;30.08;;
7737;SDS011;29398;45.328;5.558;2024-01-10T12:01:28;45.88;;;32.47;;
7737;SDS011;29398;45.328;5.558;2024-01-10T12:02:30;45.00;;;33.00;;
7737;SDS011;29398;45.328;5.558;2024-01-10T12:03:32;45.33;;;33.55;;
7737;SDS011;29398;45.328;5.558;2024-01-10T12:04:34;40.88;;;30.00;;
7737;SDS011;29398;45.328;5.558;2024-01-10T12:05:35;48.22;;;35.10;;
7737;SDS011;29398;45.328;5.558;2024-01-10T12:06:38;45.10;;;33.33;;
7737;SDS011;29398;45.328;5.558;2024-01-10T12:07:39;44.63;;;33.50;;
7737;SDS011;29398;45.328;5.558;2024-01-10T12:08:43;45.40;;;33.28;;
7737;SDS011;29398;45.328;5.558;2024-01-10T12:09:45;43.60;;;31.92;;
7737;SDS011;29398;45.328;5.558;2024-01-10T12:10:47;44.55;;;31.73;;
7737;SDS011;29398;45.328;5.558;2024-01-10T12:11:48;41.55;;;31.05;;
7737;SDS011;29398;45.328;5.558;2024-01-10T12:12:50;41.65;;;30.95;;
7737;SDS011;29398;45.328;5.558;2024-01-10T12:13:54;43.70;;;32.60;;
7737;SDS011;29398;45.328;5.558;2024-01-10T12:14:56;43.58;;;31.35;;
7737;SDS011;29398;45.328;5.558;2024-01-10T12:15:57;42.03;;;30.50;;
7737;SDS011;29398;45.328;5.558;2024-01-10T12:16:59;41.67;;;30.45;;
7737;SDS011;29398;45.328;5.558;2024-01-10T12:18:01;41.30;;;29.83;;
7737;SDS011;29398;45.328;5.558;2024-01-10T12:19:04;40.22;;;30.15;;
7737;SDS011;29398;45.328;5.558;2024-01-10T12:20:06;42.05;;;30.30;;
7737;SDS011;29398;45.328;5.558;2024-01-10T12:21:07;40.42;;;30.45;;
7737;SDS011;29398;45.328;5.558;2024-01-10T12:22:10;44.13;;;31.85;;
7737;SDS011;29398;45.328;5.558;2024-01-10T12:23:11;55.65;;;36.75;;
7737;SDS011;29398;45.328;5.558;2024-01-10T12:24:14;74.55;;;46.95;;
7737;SDS011;29398;45.328;5.558;2024-01-10T12:25:16;52.20;;;34.10;;
7737;SDS011;29398;45.328;5.558;2024-01-10T12:26:19;46.65;;;32.78;;
7737;SDS011;29398;45.328;5.558;2024-01-10T12:27:20;44.60;;;32.45;;
7737;SDS011;29398;45.328;5.558;2024-01-10T12:28:22;45.80;;;32.78;;
7737;SDS011;29398;45.328;5.558;2024-01-10T12:29:23;133.77;;;67.20;;
7737;SDS011;29398;45.328;5.558;2024-01-10T12:30:25;79.13;;;46.50;;
7737;SDS011;29398;45.328;5.558;2024-01-10T12:31:28;63.05;;;41.17;;
7737;SDS011;29398;45.328;5.558;2024-01-10T12:32:29;57.60;;;37.88;;
7737;SDS011;29398;45.328;5.558;2024-01-10T12:33:33;121.57;;;62.15;;
7737;SDS011;29398;45.328;5.558;2024-01-10T12:34:37;73.35;;;44.00;;
7737;SDS011;29398;45.328;5.558;2024-01-10T12:35:40;153.43;;;79.55;;
7737;SDS011;29398;45.328;5.558;2024-01-10T12:36:43;75.00;;;45.10;;
7737;SDS011;29398;45.328;5.558;2024-01-10T12:37:52;73.05;;;45.15;;
7737;SDS011;29398;45.328;5.558;2024-01-10T12:38:55;58.90;;;39.05;;
7737;SDS011;29398;45.328;5.558;2024-01-10T12:39:58;68.53;;;43.45;;
7737;SDS011;29398;45.328;5.558;2024-01-10T12:41:00;70.80;;;43.35;;
7737;SDS011;29398;45.328;5.558;2024-01-10T12:42:02;91.50;;;51.78;;
7737;SDS011;29398;45.328;5.558;2024-01-10T12:43:05;101.05;;;59.15;;
7737;SDS011;29398;45.328;5.558;2024-01-10T12:44:07;80.85;;;48.85;;
7737;SDS011;29398;45.328;5.558;2024-01-10T12:45:20;71.50;;;46.00;;
7737;SDS011;29398;45.328;5.558;2024-01-10T12:46:21;76.05;;;49.63;;
7737;SDS011;29398;45.328;5.558;2024-01-10T12:47:25;58.33;;;39.47;;
7737;SDS011;29398;45.328;5.558;2024-01-10T12:48:26;69.18;;;52.42;;
7737;SDS011;29398;45.328;5.558;2024-01-10T12:49:27;54.33;;;40.78;;
7737;SDS011;29398;45.328;5.558;2024-01-10T12:50:30;48.38;;;35.83;;
7737;SDS011;29398;45.328;5.558;2024-01-10T12:51:31;44.88;;;33.72;;
7737;SDS011;29398;45.328;5.558;2024-01-10T12:52:33;44.78;;;31.73;;
7737;SDS011;29398;45.328;5.558;2024-01-10T12:53:40;45.03;;;33.03;;
7737;SDS011;29398;45.328;5.558;2024-01-10T12:54:43;41.40;;;31.55;;
7737;SDS011;29398;45.328;5.558;2024-01-10T12:55:46;46.20;;;33.75;;
7737;SDS011;29398;45.328;5.558;2024-01-10T12:56:47;46.83;;;33.70;;
7737;SDS011;29398;45.328;5.558;2024-01-10T12:57:50;43.08;;;32.05;;
7737;SDS011;29398;45.328;5.558;2024-01-10T12:58:51;38.50;;;28.55;;
7737;SDS011;29398;45.328;5.558;2024-01-10T12:59:53;37.53;;;29.23;;
7737;SDS011;29398;45.328;5.558;2024-01-10T13:00:54;36.95;;;26.30;;
7737;SDS011;29398;45.328;5.558;2024-01-10T13:01:56;42.47;;;31.77;;
7737;SDS011;29398;45.328;5.558;2024-01-10T13:02:58;40.88;;;30.33;;
7737;SDS011;29398;45.328;5.558;2024-01-10T13:03:59;39.38;;;29.70;;
7737;SDS011;29398;45.328;5.558;2024-01-10T13:05:01;36.88;;;27.77;;
7737;SDS011;29398;45.328;5.558;2024-01-10T13:06:03;38.40;;;28.73;;
7737;SDS011;29398;45.328;5.558;2024-01-10T13:07:05;39.35;;;30.35;;
7737;SDS011;29398;45.328;5.558;2024-01-10T13:08:06;39.80;;;30.40;;
7737;SDS011;29398;45.328;5.558;2024-01-10T13:09:08;38.17;;;29.15;;
7737;SDS011;29398;45.328;5.558;2024-01-10T13:10:10;39.63;;;30.80;;
7737;SDS011;29398;45.328;5.558;2024-01-10T13:11:14;39.35;;;29.17;;
7737;SDS011;29398;45.328;5.558;2024-01-10T13:12:16;53.80;;;41.97;;
7737;SDS011;29398;45.328;5.558;2024-01-10T13:13:18;51.22;;;37.42;;
7737;SDS011;29398;45.328;5.558;2024-01-10T13:14:21;45.60;;;33.97;;
7737;SDS011;29398;45.328;5.558;2024-01-10T13:15:23;47.30;;;35.78;;
7737;SDS011;29398;45.328;5.558;2024-01-10T13:16:25;50.35;;;38.00;;
7737;SDS011;29398;45.328;5.558;2024-01-10T13:17:26;41.13;;;30.55;;
7737;SDS011;29398;45.328;5.558;2024-01-10T13:18:28;385.15;;;173.00;;
7737;SDS011;29398;45.328;5.558;2024-01-10T13:19:29;414.65;;;190.35;;
7737;SDS011;29398;45.328;5.558;2024-01-10T13:20:31;416.77;;;181.73;;
7737;SDS011;29398;45.328;5.558;2024-01-10T13:21:33;269.50;;;116.15;;
7737;SDS011;29398;45.328;5.558;2024-01-10T13:22:35;149.23;;;67.90;;
7737;SDS011;29398;45.328;5.558;2024-01-10T13:23:36;121.32;;;61.13;;
7737;SDS011;29398;45.328;5.558;2024-01-10T13:24:37;96.10;;;53.53;;
7737;SDS011;29398;45.328;5.558;2024-01-10T13:25:40;142.60;;;70.90;;
7737;SDS011;29398;45.328;5.558;2024-01-10T13:26:42;195.73;;;94.60;;
7737;SDS011;29398;45.328;5.558;2024-01-10T13:27:44;128.88;;;65.13;;
7737;SDS011;29398;45.328;5.558;2024-01-10T13:28:46;71.57;;;42.58;;
7737;SDS011;29398;45.328;5.558;2024-01-10T13:29:49;66.68;;;40.70;;
7737;SDS011;29398;45.328;5.558;2024-01-10T13:30:50;130.27;;;68.95;;
7737;SDS011;29398;45.328;5.558;2024-01-10T13:31:52;77.03;;;47.35;;
7737;SDS011;29398;45.328;5.558;2024-01-10T13:32:53;73.78;;;46.15;;
7737;SDS011;29398;45.328;5.558;2024-01-10T13:33:54;69.10;;;44.72;;
7737;SDS011;29398;45.328;5.558;2024-01-10T13:34:56;108.85;;;61.50;;
7737;SDS011;29398;45.328;5.558;2024-01-10T13:35:57;62.42;;;39.53;;
7737;SDS011;29398;45.328;5.558;2024-01-10T13:37:01;140.65;;;79.03;;
7737;SDS011;29398;45.328;5.558;2024-01-10T13:38:02;70.18;;;45.17;;
7737;SDS011;29398;45.328;5.558;2024-01-10T13:39:05;64.68;;;42.63;;
7737;SDS011;29398;45.328;5.558;2024-01-10T13:40:07;62.65;;;40.72;;
7737;SDS011;29398;45.328;5.558;2024-01-10T13:41:09;81.65;;;54.47;;
7737;SDS011;29398;45.328;5.558;2024-01-10T13:42:13;58.78;;;42.15;;
7737;SDS011;29398;45.328;5.558;2024-01-10T13:43:14;105.97;;;69.35;;
7737;SDS011;29398;45.328;5.558;2024-01-10T13:44:16;75.53;;;51.13;;
7737;SDS011;29398;45.328;5.558;2024-01-10T13:45:17;58.00;;;40.55;;
7737;SDS011;29398;45.328;5.558;2024-01-10T13:46:20;68.78;;;49.08;;
7737;SDS011;29398;45.328;5.558;2024-01-10T13:47:21;61.53;;;43.22;;
7737;SDS011;29398;45.328;5.558;2024-01-10T13:48:23;56.50;;;39.50;;
7737;SDS011;29398;45.328;5.558;2024-01-10T13:49:25;52.25;;;37.38;;
7737;SDS011;29398;45.328;5.558;2024-01-10T13:50:27;58.25;;;44.42;;
7737;SDS011;29398;45.328;5.558;2024-01-10T13:51:30;48.40;;;34.50;;
7737;SDS011;29398;45.328;5.558;2024-01-10T13:52:32;47.55;;;34.80;;
7737;SDS011;29398;45.328;5.558;2024-01-10T13:53:33;46.40;;;33.05;;
7737;SDS011;29398;45.328;5.558;2024-01-10T13:54:36;48.00;;;33.53;;
7737;SDS011;29398;45.328;5.558;2024-01-10T13:55:37;44.80;;;32.85;;
7737;SDS011;29398;45.328;5.558;2024-01-10T13:56:39;43.30;;;32.15;;
7737;SDS011;29398;45.328;5.558;2024-01-10T13:57:42;52.05;;;38.55;;
7737;SDS011;29398;45.328;5.558;2024-01-10T13:58:43;44.97;;;33.58;;
7737;SDS011;29398;45.328;5.558;2024-01-10T13:59:45;46.80;;;34.83;;
7737;SDS011;29398;45.328;5.558;2024-01-10T14:00:47;48.75;;;38.35;;
7737;SDS011;29398;45.328;5.558;2024-01-10T14:01:49;40.33;;;30.80;;
7737;SDS011;29398;45.328;5.558;2024-01-10T14:02:50;49.67;;;35.75;;
7737;SDS011;29398;45.328;5.558;2024-01-10T14:03:55;59.17;;;48.08;;
7737;SDS011;29398;45.328;5.558;2024-01-10T14:04:56;52.13;;;41.92;;
7737;SDS011;29398;45.328;5.558;2024-01-10T14:05:58;46.67;;;35.97;;
7737;SDS011;29398;45.328;5.558;2024-01-10T14:07:00;45.85;;;35.15;;
7737;SDS011;29398;45.328;5.558;2024-01-10T14:08:01;44.65;;;34.13;;
7737;SDS011;29398;45.328;5.558;2024-01-10T14:09:03;43.95;;;33.75;;
7737;SDS011;29398;45.328;5.558;2024-01-10T14:10:04;43.25;;;34.05;;
7737;SDS011;29398;45.328;5.558;2024-01-10T14:11:06;44.83;;;33.03;;
7737;SDS011;29398;45.328;5.558;2024-01-10T14:12:08;43.70;;;33.40;;
7737;SDS011;29398;45.328;5.558;2024-01-10T14:13:11;41.88;;;32.08;;
7737;SDS011;29398;45.328;5.558;2024-01-10T14:14:13;45.88;;;34.53;;
7737;SDS011;29398;45.328;5.558;2024-01-10T14:15:14;51.78;;;37.15;;
7737;SDS011;29398;45.328;5.558;2024-01-10T14:16:16;49.47;;;37.53;;
7737;SDS011;29398;45.328;5.558;2024-01-10T14:17:17;64.22;;;45.50;;
7737;SDS011;29398;45.328;5.558;2024-01-10T14:18:18;48.78;;;36.55;;
7737;SDS011;29398;45.328;5.558;2024-01-10T14:19:21;62.58;;;45.22;;
7737;SDS011;29398;45.328;5.558;2024-01-10T14:20:23;51.75;;;39.55;;
7737;SDS011;29398;45.328;5.558;2024-01-10T14:21:25;48.97;;;35.60;;
7737;SDS011;29398;45.328;5.558;2024-01-10T14:22:27;74.80;;;58.05;;
7737;SDS011;29398;45.328;5.558;2024-01-10T14:23:29;52.92;;;39.78;;
7737;SDS011;29398;45.328;5.558;2024-01-10T14:24:30;48.03;;;36.13;;
7737;SDS011;29398;45.328;5.558;2024-01-10T14:25:33;46.33;;;32.92;;
7737;SDS011;29398;45.328;5.558;2024-01-10T14:26:34;46.75;;;33.92;;